Time,TemperatureF,DewpointF,PressureIn,WindDirection,WindDirectionDegrees,WindSpeedMPH,WindSpeedGustMPH,Humidity,HourlyPrecipIn,Conditions,Clouds,dailyrainin,SoftwareType,DateUTC
2013-12-08 00:02:00,37.9,34.7,30.41,NNE,13,3.5,3.5,88,0.00,CLR,,0.00,WeatherDisplay:10.37,2013-12-08 06:02:00,
2013-12-08 00:07:00,37.9,34.7,30.41,NNE,13,2.3,2.3,88,0.00,CLR,,0.00,WeatherDisplay:10.37,2013-12-08 06:07:00,
2013-12-08 00:12:00,37.9,34.7,30.41,NNE,30,0.0,0.0,88,0.00,CLR,,0.00,WeatherDisplay:10.37,2013-12-08 06:12:00,
2013-12-08 00:17:00,37.9,34.7,30.40,NE,34,9.2,9.2,88,0.00,CLR,,0.00,WeatherDisplay:10.37,2013-12-08 06:17:00,
2013-12-08 00:22:00,37.9,34.7,30.40,NNE,19,3.5,3.5,88,0.00,CLR,,0.00,WeatherDisplay:10.37,2013-12-08 06:22:00,
2013-12-08 00:27:00,37.9,34.4,30.39,North,5,9.2,9.2,87,0.00,CLR,,0.00,WeatherDisplay:10.37,2013-12-08 06:27:00,
2013-12-08 00:32:00,37.9,34.4,30.39,NNE,27,5.8,5.8,87,0.00,CLR,,0.00,WeatherDisplay:10.37,2013-12-08 06:32:00,
2013-12-08 00:37:00,37.9,34.7,30.39,NNE,27,1.2,0.0,88,0.00,CLR,,0.00,WeatherDisplay:10.37,2013-12-08 06:37:00,
2013-12-08 00:42:00,37.8,34.3,30.39,NE,36,6.9,6.9,87,0.00,CLR,,0.00,WeatherDisplay:10.37,2013-12-08 06:42:00,
2013-12-08 00:47:00,37.8,34.3,30.39,NE,34,0.0,0.0,87,0.00,CLR,,0.00,WeatherDisplay:10.37,2013-12-08 06:47:00,
2013-12-08 00:52:00,37.8,34.6,30.39,NE,55,4.0,4.0,88,0.00,CLR,,0.00,WeatherDisplay:10.37,2013-12-08 06:52:00,
2013-12-08 00:57:00,37.8,34.6,30.39,NE,44,5.0,5.0,88,0.00,CLR,,0.00,WeatherDisplay:10.37,2013-12-08 06:57:00,
2013-12-08 01:02:00,37.8,34.6,30.39,NNE,30,2.0,2.0,88,0.00,CLR,,0.00,WeatherDisplay:10.37,2013-12-08 07:02:00,
2013-12-08 01:07:00,37.8,34.6,30.38,NNE,30,0.0,0.0,88,0.00,CLR,,0.00,WeatherDisplay:10.37,2013-12-08 07:07:00,
2013-12-08 01:12:00,37.9,34.7,30.38,NNE,30,0.0,0.0,88,0.00,CLR,,0.00,WeatherDisplay:10.37,2013-12-08 07:12:00,
2013-12-08 01:17:00,37.9,34.7,30.38,NE,43,3.5,3.5,88,0.00,CLR,,0.00,WeatherDisplay:10.37,2013-12-08 07:17:00,
2013-12-08 01:22:00,37.9,34.7,30.38,NNE,26,3.5,3.5,88,0.00,CLR,,0.00,WeatherDisplay:10.37,2013-12-08 07:22:00,
2013-12-08 01:27:00,37.9,34.7,30.37,NNE,23,1.2,0.0,88,0.00,CLR,,0.00,WeatherDisplay:10.37,2013-12-08 07:27:00,
2013-12-08 01:32:00,37.9,34.7,30.37,NNE,22,4.6,4.6,88,0.00,CLR,,0.00,WeatherDisplay:10.37,2013-12-08 07:32:00,
2013-12-08 01:37:00,37.9,34.7,30.37,NNE,19,2.3,2.3,88,0.01,RA,,0.01,WeatherDisplay:10.37,2013-12-08 07:37:00,
2013-12-08 01:42:00,37.9,34.9,30.37,NNE,20,0.0,0.0,89,0.01,RA,,0.01,WeatherDisplay:10.37,2013-12-08 07:42:00,
2013-12-08 01:47:00,37.9,34.9,30.36,NNE,20,0.0,0.0,89,0.01,CLR,,0.01,WeatherDisplay:10.37,2013-12-08 07:47:00,
2013-12-08 01:52:00,37.9,34.9,30.36,NNE,20,0.0,0.0,89,0.01,CLR,,0.01,WeatherDisplay:10.37,2013-12-08 07:52:00,
2013-12-08 01:57:00,37.9,35.2,30.36,NNE,20,2.3,2.3,90,0.01,CLR,,0.01,WeatherDisplay:10.37,2013-12-08 07:57:00,
2013-12-08 02:02:00,37.8,35.1,30.36,NNE,20,2.3,2.3,90,0.02,RA,,0.02,WeatherDisplay:10.37,2013-12-08 08:02:00,
2013-12-08 02:07:00,37.8,35.1,30.36,NNE,20,2.3,2.3,90,0.02,RA,,0.02,WeatherDisplay:10.37,2013-12-08 08:07:00,
2013-12-08 02:12:00,37.8,35.4,30.36,NNE,20,2.0,2.0,91,0.02,CLR,,0.02,WeatherDisplay:10.37,2013-12-08 08:12:00,
2013-12-08 02:17:00,37.6,35.2,30.36,NNE,20,2.3,0.0,91,0.02,CLR,,0.02,WeatherDisplay:10.37,2013-12-08 08:17:00,
2013-12-08 02:22:00,37.6,35.2,30.35,NNE,20,1.2,1.2,91,0.02,CLR,,0.02,WeatherDisplay:10.37,2013-12-08 08:22:00,
2013-12-08 02:27:00,37.6,35.2,30.34,NE,42,2.3,2.3,91,0.03,RA,,0.03,WeatherDisplay:10.37,2013-12-08 08:27:00,
2013-12-08 02:32:00,37.6,35.5,30.35,NE,42,0.0,0.0,92,0.03,RA,,0.03,WeatherDisplay:10.37,2013-12-08 08:32:00,
2013-12-08 02:37:00,37.5,35.4,30.35,NE,42,0.0,0.0,92,0.02,CLR,,0.03,WeatherDisplay:10.37,2013-12-08 08:37:00,
2013-12-08 02:42:00,37.5,35.4,30.35,NE,42,0.0,0.0,92,0.03,RA,,0.04,WeatherDisplay:10.37,2013-12-08 08:42:00,
2013-12-08 02:47:00,37.6,35.5,30.34,NE,42,0.0,0.0,92,0.03,RA,,0.04,WeatherDisplay:10.37,2013-12-08 08:47:00,
2013-12-08 02:52:00,37.5,35.4,30.34,NE,42,2.3,2.3,92,0.04,RA,,0.05,WeatherDisplay:10.37,2013-12-08 08:52:00,
2013-12-08 02:57:00,37.5,35.4,30.34,NE,42,0.0,0.0,92,0.05,RA,,0.06,WeatherDisplay:10.37,2013-12-08 08:57:00,
2013-12-08 03:02:00,37.5,35.7,30.34,NE,42,0.0,0.0,93,0.04,RA,,0.06,WeatherDisplay:10.37,2013-12-08 09:02:00,
2013-12-08 03:07:00,37.5,35.7,30.33,NE,42,0.0,0.0,93,0.04,CLR,,0.06,WeatherDisplay:10.37,2013-12-08 09:07:00,
2013-12-08 03:12:00,37.5,35.7,30.33,NE,42,1.2,0.0,93,0.04,CLR,,0.06,WeatherDisplay:10.37,2013-12-08 09:12:00,
2013-12-08 03:17:00,37.5,35.7,30.33,NE,42,0.0,0.0,93,0.04,CLR,,0.06,WeatherDisplay:10.37,2013-12-08 09:17:00,
2013-12-08 03:22:00,37.6,35.8,30.33,NE,42,0.0,0.0,93,0.04,CLR,,0.06,WeatherDisplay:10.37,2013-12-08 09:22:00,
2013-12-08 03:27:00,37.6,35.8,30.32,NE,42,0.0,0.0,93,0.03,CLR,,0.06,WeatherDisplay:10.37,2013-12-08 09:27:00,
2013-12-08 03:32:00,37.6,35.8,30.32,NE,42,1.2,0.0,93,0.03,CLR,,0.06,WeatherDisplay:10.37,2013-12-08 09:32:00,
2013-12-08 03:37:00,37.6,35.8,30.31,NE,42,0.0,0.5,93,0.03,CLR,,0.06,WeatherDisplay:10.37,2013-12-08 09:37:00,
2013-12-08 03:42:00,37.8,36.0,30.31,NE,42,0.0,0.0,93,0.02,CLR,,0.06,WeatherDisplay:10.37,2013-12-08 09:42:00,
2013-12-08 03:47:00,37.8,36.0,30.32,NE,42,0.0,0.0,93,0.02,CLR,,0.06,WeatherDisplay:10.37,2013-12-08 09:47:00,
2013-12-08 03:52:00,37.8,36.2,30.31,NE,42,0.0,0.0,94,0.01,CLR,,0.06,WeatherDisplay:10.37,2013-12-08 09:52:00,
2013-12-08 03:57:00,37.8,36.2,30.31,NE,42,2.3,0.0,94,0.00,CLR,,0.06,WeatherDisplay:10.37,2013-12-08 09:57:00,
2013-12-08 04:02:00,37.8,36.2,30.31,NE,42,0.0,0.0,94,0.00,CLR,,0.06,WeatherDisplay:10.37,2013-12-08 10:02:00,
2013-12-08 04:07:00,37.8,36.2,30.30,NE,42,1.2,0.0,94,0.00,CLR,,0.06,WeatherDisplay:10.37,2013-12-08 10:07:00,
2013-12-08 04:12:00,37.9,36.3,30.31,NE,42,0.0,0.0,94,0.00,CLR,,0.06,WeatherDisplay:10.37,2013-12-08 10:12:00,
2013-12-08 04:17:00,37.9,36.3,30.31,NE,42,0.0,0.0,94,0.00,CLR,,0.06,WeatherDisplay:10.37,2013-12-08 10:17:00,
2013-12-08 04:22:00,37.9,36.3,30.31,NE,42,0.0,0.0,94,0.00,CLR,,0.06,WeatherDisplay:10.37,2013-12-08 10:22:00,
2013-12-08 04:27:00,38.0,36.4,30.31,NE,42,0.0,0.3,94,0.00,CLR,,0.06,WeatherDisplay:10.37,2013-12-08 10:27:00,
2013-12-08 04:32:00,38.0,36.4,30.31,NE,42,1.2,1.2,94,0.01,RA,,0.07,WeatherDisplay:10.37,2013-12-08 10:32:00,
2013-12-08 04:38:00,38.2,36.6,30.31,NE,42,1.2,0.0,94,0.01,RA,,0.07,WeatherDisplay:10.37,2013-12-08 10:38:00,
2013-12-08 04:43:00,38.3,36.7,30.31,NE,42,0.0,0.0,94,0.01,,,0.07,WeatherDisplay:10.37,2013-12-08 10:43:00,
2013-12-08 04:48:00,38.5,37.2,30.30,NE,42,0.0,0.0,95,0.01,CLR,,0.07,WeatherDisplay:10.37,2013-12-08 10:48:00,
2013-12-08 04:53:00,38.6,37.3,30.31,NE,42,0.0,0.0,95,0.01,CLR,,0.07,WeatherDisplay:10.37,2013-12-08 10:53:00,
2013-12-08 04:58:00,38.6,37.3,30.31,NE,42,0.0,0.0,95,0.03,RA,,0.09,WeatherDisplay:10.37,2013-12-08 10:58:00,
2013-12-08 05:03:00,38.8,37.5,30.31,NE,42,0.0,0.0,95,0.04,RA,,0.10,WeatherDisplay:10.37,2013-12-08 11:03:00,
2013-12-08 05:08:00,38.8,37.5,30.31,NE,42,0.0,0.0,95,0.05,RA,,0.11,WeatherDisplay:10.37,2013-12-08 11:08:00,
2013-12-08 05:13:00,38.9,37.6,30.31,NE,42,2.3,2.3,95,0.06,RA,,0.12,WeatherDisplay:10.37,2013-12-08 11:13:00,
2013-12-08 05:18:00,38.9,37.6,30.31,NE,42,0.0,0.0,95,0.06,RA,,0.12,WeatherDisplay:10.37,2013-12-08 11:18:00,
2013-12-08 05:23:00,38.9,37.6,30.31,NE,42,0.0,0.0,95,0.06,,,0.12,WeatherDisplay:10.37,2013-12-08 11:23:00,
2013-12-08 05:28:00,38.9,37.6,30.31,NE,42,0.0,0.0,95,0.07,RA,,0.14,WeatherDisplay:10.37,2013-12-08 11:28:00,
2013-12-08 05:33:00,38.9,37.6,30.31,NE,42,0.0,0.0,95,0.07,RA,,0.15,WeatherDisplay:10.37,2013-12-08 11:33:00,
2013-12-08 05:38:00,38.9,37.6,30.32,NE,42,0.0,0.0,95,0.09,RA,,0.16,WeatherDisplay:10.37,2013-12-08 11:38:00,
2013-12-08 05:43:00,38.9,37.6,30.31,NE,42,0.0,0.0,95,0.09,RA,,0.16,WeatherDisplay:10.37,2013-12-08 11:43:00,
2013-12-08 05:48:00,39.1,37.8,30.31,NE,42,0.0,0.0,95,0.09,,,0.16,WeatherDisplay:10.37,2013-12-08 11:48:00,
2013-12-08 05:53:00,39.1,37.8,30.31,NE,42,0.0,0.0,95,0.09,CLR,,0.16,WeatherDisplay:10.37,2013-12-08 11:53:00,
2013-12-08 05:58:00,39.1,37.8,30.31,NE,42,0.0,0.0,95,0.07,CLR,,0.16,WeatherDisplay:10.37,2013-12-08 11:58:00,
2013-12-08 06:03:00,39.2,37.9,30.31,NE,42,0.0,0.0,95,0.06,CLR,,0.16,WeatherDisplay:10.37,2013-12-08 12:03:00,
2013-12-08 06:08:00,39.2,37.9,30.31,NE,42,1.2,1.2,95,0.05,CLR,,0.17,WeatherDisplay:10.37,2013-12-08 12:08:00,
2013-12-08 06:13:00,39.3,38.0,30.31,NE,42,0.0,0.0,95,0.05,RA,,0.17,WeatherDisplay:10.37,2013-12-08 12:13:00,
2013-12-08 06:18:00,39.3,38.0,30.31,NE,42,0.0,0.0,95,0.05,RA,,0.17,WeatherDisplay:10.37,2013-12-08 12:18:00,
2013-12-08 06:23:00,39.5,38.2,30.31,NE,42,0.0,0.0,95,0.05,CLR,,0.17,WeatherDisplay:10.37,2013-12-08 12:23:00,
2013-12-08 06:28:00,39.5,38.2,30.31,NE,42,0.0,0.0,95,0.04,CLR,,0.17,WeatherDisplay:10.37,2013-12-08 12:28:00,
2013-12-08 06:33:00,39.5,38.2,30.31,NE,42,0.0,0.0,95,0.04,RA,,0.18,WeatherDisplay:10.37,2013-12-08 12:33:00,
2013-12-08 06:38:00,39.6,38.3,30.30,NE,42,0.0,0.0,95,0.02,RA,,0.18,WeatherDisplay:10.37,2013-12-08 12:38:00,
2013-12-08 06:43:00,39.6,38.3,30.30,NE,42,0.0,0.0,95,0.02,,,0.18,WeatherDisplay:10.37,2013-12-08 12:43:00,
2013-12-08 06:48:00,39.8,38.5,30.30,NE,42,0.0,0.0,95,0.03,RA,,0.19,WeatherDisplay:10.37,2013-12-08 12:48:00,
2013-12-08 06:53:00,39.8,38.5,30.30,NE,42,0.0,0.0,95,0.03,RA,,0.19,WeatherDisplay:10.37,2013-12-08 12:53:00,
2013-12-08 06:58:00,39.9,38.6,30.30,NE,42,0.0,0.0,95,0.03,CLR,,0.20,WeatherDisplay:10.37,2013-12-08 12:58:00,
2013-12-08 07:03:00,39.9,38.9,30.30,NE,42,0.0,0.0,96,0.04,RA,,0.20,WeatherDisplay:10.37,2013-12-08 13:03:00,
2013-12-08 07:08:00,40.1,39.1,30.30,NE,42,0.0,0.0,96,0.04,RA,,0.20,WeatherDisplay:10.37,2013-12-08 13:08:00,
2013-12-08 07:13:00,40.2,39.2,30.30,NE,42,0.0,0.0,96,0.03,CLR,,0.20,WeatherDisplay:10.37,2013-12-08 13:13:00,
2013-12-08 07:18:00,40.2,39.2,30.31,NE,42,0.0,0.0,96,0.03,CLR,,0.20,WeatherDisplay:10.37,2013-12-08 13:18:00,
2013-12-08 07:23:00,40.3,39.3,30.31,NE,42,0.0,0.0,96,0.03,CLR,,0.20,WeatherDisplay:10.37,2013-12-08 13:23:00,
2013-12-08 07:28:00,40.6,39.5,30.30,NE,42,0.0,0.0,96,0.03,CLR,,0.20,WeatherDisplay:10.37,2013-12-08 13:28:00,
2013-12-08 07:33:00,40.8,39.7,30.30,NE,42,0.0,0.0,96,0.02,CLR,,0.20,WeatherDisplay:10.37,2013-12-08 13:33:00,
2013-12-08 07:38:00,41.1,40.0,30.30,NE,42,0.0,0.0,96,0.02,CLR,,0.20,WeatherDisplay:10.37,2013-12-08 13:38:00,
2013-12-08 07:43:00,41.1,40.0,30.31,NE,42,0.0,0.0,96,0.02,CLR,,0.20,WeatherDisplay:10.37,2013-12-08 13:43:00,
2013-12-08 07:48:00,41.1,40.0,30.31,NE,42,0.0,0.0,96,0.01,CLR,,0.20,WeatherDisplay:10.37,2013-12-08 13:48:00,
2013-12-08 07:53:00,41.1,40.0,30.31,NE,42,0.0,0.0,96,0.01,CLR,,0.20,WeatherDisplay:10.37,2013-12-08 13:53:00,
2013-12-08 07:58:00,41.1,40.0,30.31,NE,42,0.0,0.0,96,0.00,CLR,,0.20,WeatherDisplay:10.37,2013-12-08 13:58:00,
2013-12-08 08:03:00,41.1,40.0,30.31,NE,42,0.0,0.0,96,0.00,CLR,,0.20,WeatherDisplay:10.37,2013-12-08 14:03:00,
2013-12-08 08:08:00,41.1,40.0,30.31,NE,42,0.0,0.0,96,0.01,RA,,0.21,WeatherDisplay:10.37,2013-12-08 14:08:00,
2013-12-08 08:13:00,41.1,40.0,30.31,NE,42,0.0,0.0,96,0.01,RA,,0.21,WeatherDisplay:10.37,2013-12-08 14:13:00,
2013-12-08 08:18:00,41.2,40.1,30.31,NE,42,0.0,0.0,96,0.02,RA,,0.22,WeatherDisplay:10.37,2013-12-08 14:18:00,
2013-12-08 08:23:00,41.2,40.1,30.31,NE,42,0.0,0.0,96,0.04,RA,,0.24,WeatherDisplay:10.37,2013-12-08 14:23:00,
2013-12-08 08:28:00,41.3,40.2,30.31,NE,42,0.0,0.0,96,0.04,RA,,0.24,WeatherDisplay:10.37,2013-12-08 14:28:00,
2013-12-08 08:33:00,41.5,40.4,30.31,NE,42,0.0,0.0,96,0.04,,,0.24,WeatherDisplay:10.37,2013-12-08 14:33:00,
2013-12-08 08:38:00,41.8,40.7,30.31,NE,42,0.0,0.0,96,0.04,CLR,,0.24,WeatherDisplay:10.37,2013-12-08 14:38:00,
2013-12-08 08:43:00,41.9,40.8,30.31,NE,42,0.0,0.0,96,0.04,CLR,,0.24,WeatherDisplay:10.37,2013-12-08 14:43:00,
2013-12-08 08:48:00,42.1,41.0,30.31,NE,42,0.0,0.0,96,0.04,CLR,,0.24,WeatherDisplay:10.37,2013-12-08 14:48:00,
2013-12-08 08:53:00,42.2,41.1,30.30,NE,42,1.2,1.2,96,0.04,CLR,,0.24,WeatherDisplay:10.37,2013-12-08 14:53:00,
2013-12-08 08:58:00,42.3,41.2,30.31,NE,42,0.0,0.0,96,0.05,RA,,0.25,WeatherDisplay:10.37,2013-12-08 14:58:00,
2013-12-08 09:03:00,42.5,41.4,30.30,NE,42,0.0,0.0,96,0.05,RA,,0.25,WeatherDisplay:10.37,2013-12-08 15:03:00,
2013-12-08 09:08:00,42.8,41.7,30.30,NE,42,0.0,0.0,96,0.04,CLR,,0.25,WeatherDisplay:10.37,2013-12-08 15:08:00,
2013-12-08 09:13:00,43.1,42.0,30.30,NE,42,1.2,1.2,96,0.04,CLR,,0.25,WeatherDisplay:10.37,2013-12-08 15:13:00,
2013-12-08 09:18:00,43.2,42.1,30.30,NE,42,0.0,0.0,96,0.03,CLR,,0.25,WeatherDisplay:10.37,2013-12-08 15:18:00,
2013-12-08 09:23:00,43.5,42.4,30.30,NE,42,0.0,0.0,96,0.01,CLR,,0.25,WeatherDisplay:10.37,2013-12-08 15:23:00,
2013-12-08 09:28:00,43.8,42.7,30.30,NE,42,0.0,0.0,96,0.01,CLR,,0.25,WeatherDisplay:10.37,2013-12-08 15:28:00,
2013-12-08 09:33:00,43.9,42.8,30.31,NE,42,0.0,0.0,96,0.01,CLR,,0.25,WeatherDisplay:10.37,2013-12-08 15:33:00,
2013-12-08 09:38:00,44.1,43.0,30.30,NE,42,0.0,0.0,96,0.01,CLR,,0.25,WeatherDisplay:10.37,2013-12-08 15:38:00,
2013-12-08 09:43:00,44.2,43.1,30.31,NE,42,0.0,0.0,96,0.01,CLR,,0.25,WeatherDisplay:10.37,2013-12-08 15:43:00,
2013-12-08 09:48:00,44.3,43.5,30.30,NE,42,0.0,0.0,97,0.01,CLR,,0.25,WeatherDisplay:10.37,2013-12-08 15:48:00,
2013-12-08 09:53:00,44.5,43.4,30.30,NE,42,0.0,0.0,96,0.01,CLR,,0.25,WeatherDisplay:10.37,2013-12-08 15:53:00,
2013-12-08 09:58:00,44.6,43.8,30.30,NE,42,0.0,0.0,97,0.00,CLR,,0.25,WeatherDisplay:10.37,2013-12-08 15:58:00,
2013-12-08 10:03:00,44.6,43.8,30.30,NE,42,0.0,0.0,97,0.00,CLR,,0.25,WeatherDisplay:10.37,2013-12-08 16:03:00,
2013-12-08 10:08:00,44.8,44.0,30.30,NE,42,1.0,1.0,97,0.00,CLR,,0.25,WeatherDisplay:10.37,2013-12-08 16:08:00,
2013-12-08 10:13:00,44.8,43.7,30.30,NE,42,0.0,0.0,96,0.00,CLR,,0.25,WeatherDisplay:10.37,2013-12-08 16:13:00,
2013-12-08 10:18:00,44.8,43.7,30.31,NE,42,0.0,0.0,96,0.00,CLR,,0.25,WeatherDisplay:10.37,2013-12-08 16:18:00,
2013-12-08 10:23:00,44.8,43.7,30.30,NE,42,0.0,0.0,96,0.00,CLR,,0.25,WeatherDisplay:10.37,2013-12-08 16:23:00,
2013-12-08 10:28:00,44.9,43.8,30.29,NE,42,0.0,0.0,96,0.01,RA,,0.26,WeatherDisplay:10.37,2013-12-08 16:28:00,
2013-12-08 10:33:00,44.9,43.8,30.29,NE,42,0.0,0.0,96,0.01,RA,,0.26,WeatherDisplay:10.37,2013-12-08 16:33:00,
2013-12-08 10:38:00,45.1,44.3,30.29,NE,42,0.0,0.0,97,0.01,CLR,,0.26,WeatherDisplay:10.37,2013-12-08 16:38:00,
2013-12-08 10:43:00,45.1,44.0,30.28,NE,42,0.0,0.0,96,0.01,CLR,,0.26,WeatherDisplay:10.37,2013-12-08 16:43:00,
2013-12-08 10:48:00,45.1,44.0,30.28,NE,42,0.0,0.0,96,0.01,CLR,,0.26,WeatherDisplay:10.37,2013-12-08 16:48:00,
2013-12-08 10:53:00,45.1,44.0,30.28,NE,42,0.0,0.0,96,0.01,CLR,,0.26,WeatherDisplay:10.37,2013-12-08 16:53:00,
2013-12-08 10:58:00,45.1,44.0,30.28,NE,42,0.0,0.0,96,0.01,CLR,,0.26,WeatherDisplay:10.37,2013-12-08 16:58:00,
2013-12-08 11:03:00,45.2,44.4,30.28,NE,42,0.0,0.0,97,0.01,CLR,,0.26,WeatherDisplay:10.37,2013-12-08 17:03:00,
2013-12-08 11:08:00,45.4,44.6,30.27,NE,42,0.0,0.0,97,0.01,CLR,,0.26,WeatherDisplay:10.37,2013-12-08 17:08:00,
2013-12-08 11:13:00,45.4,44.6,30.27,NE,42,0.0,0.0,97,0.01,CLR,,0.26,WeatherDisplay:10.37,2013-12-08 17:13:00,
2013-12-08 11:18:00,45.5,44.7,30.27,NE,42,0.0,0.0,97,0.01,CLR,,0.26,WeatherDisplay:10.37,2013-12-08 17:18:00,
2013-12-08 11:23:00,45.7,44.9,30.27,NE,42,0.0,0.0,97,0.01,CLR,,0.26,WeatherDisplay:10.37,2013-12-08 17:23:00,
2013-12-08 11:28:00,45.7,44.9,30.26,NE,42,0.0,0.0,97,0.00,CLR,,0.26,WeatherDisplay:10.37,2013-12-08 17:28:00,
2013-12-08 11:33:00,45.8,45.0,30.26,NE,42,0.0,0.0,97,0.00,CLR,,0.26,WeatherDisplay:10.37,2013-12-08 17:33:00,
2013-12-08 11:38:00,46.0,45.2,30.26,NE,42,0.0,0.0,97,0.00,CLR,,0.26,WeatherDisplay:10.37,2013-12-08 17:38:00,
2013-12-08 11:43:00,46.0,45.2,30.26,NE,42,0.0,0.0,97,0.01,RA,,0.27,WeatherDisplay:10.37,2013-12-08 17:43:00,
2013-12-08 11:48:00,46.1,45.3,30.26,NE,42,0.0,0.0,97,0.01,RA,,0.27,WeatherDisplay:10.37,2013-12-08 17:48:00,
2013-12-08 11:53:00,46.1,45.3,30.26,NE,42,0.0,0.0,97,0.01,,,0.27,WeatherDisplay:10.37,2013-12-08 17:53:00,
2013-12-08 11:58:00,46.1,45.3,30.26,NE,42,0.0,0.0,97,0.02,RA,,0.28,WeatherDisplay:10.37,2013-12-08 17:58:00,
2013-12-08 12:03:00,46.1,45.3,30.25,NE,42,0.0,0.0,97,0.02,RA,,0.28,WeatherDisplay:10.37,2013-12-08 18:03:00,
2013-12-08 12:08:00,46.2,45.4,30.26,NE,42,0.0,0.0,97,0.02,,,0.28,WeatherDisplay:10.37,2013-12-08 18:08:00,
2013-12-08 12:13:00,46.2,45.4,30.25,NE,42,0.0,0.0,97,0.02,CLR,,0.28,WeatherDisplay:10.37,2013-12-08 18:13:00,
2013-12-08 12:18:00,46.2,45.4,30.25,NE,42,0.0,0.0,97,0.03,RA,,0.29,WeatherDisplay:10.37,2013-12-08 18:18:00,
2013-12-08 12:23:00,46.4,45.6,30.25,NE,42,0.0,0.0,97,0.03,RA,,0.29,WeatherDisplay:10.37,2013-12-08 18:23:00,
2013-12-08 12:28:00,46.4,45.6,30.24,NE,42,0.0,0.0,97,0.03,,,0.29,WeatherDisplay:10.37,2013-12-08 18:28:00,
2013-12-08 12:33:00,46.4,45.6,30.25,NE,42,0.0,0.0,97,0.03,CLR,,0.29,WeatherDisplay:10.37,2013-12-08 18:33:00,
2013-12-08 12:38:00,46.5,45.7,30.25,NE,42,0.0,0.0,97,0.04,RA,,0.30,WeatherDisplay:10.37,2013-12-08 18:38:00,
2013-12-08 12:43:00,46.5,45.7,30.25,NE,42,0.0,0.0,97,0.06,RA,,0.34,WeatherDisplay:10.37,2013-12-08 18:43:00,
2013-12-08 12:48:00,46.5,45.7,30.24,NE,42,0.0,0.0,97,0.08,RA,,0.35,WeatherDisplay:10.37,2013-12-08 18:48:00,
2013-12-08 12:53:00,46.5,45.7,30.24,NE,42,0.0,0.0,97,0.08,RA,,0.35,WeatherDisplay:10.37,2013-12-08 18:53:00,
2013-12-08 12:58:00,46.5,45.7,30.24,NE,42,0.0,0.0,97,0.07,CLR,,0.35,WeatherDisplay:10.37,2013-12-08 18:58:00,
2013-12-08 13:03:00,46.7,45.9,30.23,NE,42,0.0,0.0,97,0.07,CLR,,0.35,WeatherDisplay:10.37,2013-12-08 19:03:00,
2013-12-08 13:08:00,46.7,45.9,30.23,NE,42,0.0,0.0,97,0.07,CLR,,0.35,WeatherDisplay:10.37,2013-12-08 19:08:00,
2013-12-08 13:13:00,46.7,45.9,30.23,NE,42,0.0,0.0,97,0.07,CLR,,0.35,WeatherDisplay:10.37,2013-12-08 19:13:00,
2013-12-08 13:18:00,46.8,46.0,30.23,NE,42,0.0,0.0,97,0.07,RA,,0.36,WeatherDisplay:10.37,2013-12-08 19:18:00,
2013-12-08 13:23:00,46.8,46.0,30.23,NE,42,0.0,0.0,97,0.08,RA,,0.37,WeatherDisplay:10.37,2013-12-08 19:23:00,
2013-12-08 13:28:00,46.8,46.0,30.23,NE,42,0.0,0.0,97,0.08,RA,,0.37,WeatherDisplay:10.37,2013-12-08 19:28:00,
2013-12-08 13:33:00,47.0,46.2,30.23,NE,42,0.0,0.0,97,0.08,CLR,,0.37,WeatherDisplay:10.37,2013-12-08 19:33:00,
2013-12-08 13:38:00,47.0,46.2,30.23,NE,42,0.0,0.0,97,0.08,RA,,0.38,WeatherDisplay:10.37,2013-12-08 19:38:00,
2013-12-08 13:43:00,47.1,46.3,30.23,NE,42,0.0,0.0,97,0.05,RA,,0.38,WeatherDisplay:10.37,2013-12-08 19:43:00,
2013-12-08 13:48:00,47.1,46.3,30.22,NE,42,0.0,0.0,97,0.03,,,0.38,WeatherDisplay:10.37,2013-12-08 19:48:00,
2013-12-08 13:53:00,47.3,46.5,30.22,NE,42,0.0,0.0,97,0.03,CLR,,0.38,WeatherDisplay:10.37,2013-12-08 19:53:00,
2013-12-08 13:58:00,47.3,46.5,30.22,NE,42,0.0,0.0,97,0.03,CLR,,0.38,WeatherDisplay:10.37,2013-12-08 19:58:00,
2013-12-08 14:03:00,47.4,46.6,30.22,NE,42,0.0,0.0,97,0.03,CLR,,0.38,WeatherDisplay:10.37,2013-12-08 20:03:00,
2013-12-08 14:08:00,47.4,46.6,30.23,NE,42,0.0,0.0,97,0.04,RA,,0.39,WeatherDisplay:10.37,2013-12-08 20:08:00,
2013-12-08 14:13:00,47.4,46.6,30.24,NE,42,0.0,0.0,97,0.05,RA,,0.40,WeatherDisplay:10.37,2013-12-08 20:13:00,
2013-12-08 14:18:00,47.4,46.6,30.24,NE,42,0.0,0.0,97,0.06,RA,,0.42,WeatherDisplay:10.37,2013-12-08 20:18:00,
2013-12-08 14:23:00,47.4,46.6,30.23,NE,42,0.0,0.0,97,0.07,RA,,0.44,WeatherDisplay:10.37,2013-12-08 20:23:00,
2013-12-08 14:28:00,47.4,46.6,30.23,NE,42,0.0,0.0,97,0.08,RA,,0.45,WeatherDisplay:10.37,2013-12-08 20:28:00,
2013-12-08 14:33:00,47.6,46.8,30.23,NE,42,0.0,0.0,97,0.09,RA,,0.46,WeatherDisplay:10.37,2013-12-08 20:33:00,
2013-12-08 14:38:00,47.6,46.8,30.23,NE,42,0.0,0.0,97,0.08,RA,,0.46,WeatherDisplay:10.37,2013-12-08 20:38:00,
2013-12-08 14:43:00,47.7,46.9,30.24,NE,42,0.0,0.0,97,0.08,,,0.46,WeatherDisplay:10.37,2013-12-08 20:43:00,
2013-12-08 14:48:00,47.7,46.9,30.23,NE,42,0.0,0.0,97,0.08,CLR,,0.46,WeatherDisplay:10.37,2013-12-08 20:48:00,
2013-12-08 14:53:00,47.7,46.9,30.22,NE,42,0.0,0.0,97,0.08,CLR,,0.46,WeatherDisplay:10.37,2013-12-08 20:53:00,
2013-12-08 14:58:00,47.9,47.1,30.23,NE,42,0.0,0.0,97,0.08,CLR,,0.46,WeatherDisplay:10.37,2013-12-08 20:58:00,
2013-12-08 15:03:00,47.9,47.1,30.24,NE,42,0.0,0.0,97,0.08,CLR,,0.46,WeatherDisplay:10.37,2013-12-08 21:03:00,
2013-12-08 15:08:00,47.9,47.1,30.23,NE,42,0.0,0.0,97,0.08,RA,,0.47,WeatherDisplay:10.37,2013-12-08 21:08:00,
2013-12-08 15:13:00,47.9,47.1,30.24,NE,42,0.0,0.0,97,0.07,RA,,0.47,WeatherDisplay:10.37,2013-12-08 21:13:00,
2013-12-08 15:18:00,47.9,47.1,30.23,NE,42,0.0,0.0,97,0.05,CLR,,0.47,WeatherDisplay:10.37,2013-12-08 21:18:00,
2013-12-08 15:23:00,47.9,47.1,30.24,NE,42,0.0,0.0,97,0.04,RA,,0.48,WeatherDisplay:10.37,2013-12-08 21:23:00,
2013-12-08 15:28:00,48.0,47.2,30.23,NE,42,0.0,0.0,97,0.03,RA,,0.48,WeatherDisplay:10.37,2013-12-08 21:28:00,
2013-12-08 15:33:00,48.0,47.2,30.23,NE,42,0.0,0.0,97,0.02,CLR,,0.48,WeatherDisplay:10.37,2013-12-08 21:33:00,
2013-12-08 15:38:00,48.0,47.2,30.24,NE,42,0.0,0.0,97,0.02,CLR,,0.48,WeatherDisplay:10.37,2013-12-08 21:38:00,
2013-12-08 15:43:00,48.0,47.2,30.24,NE,42,0.0,0.0,97,0.02,CLR,,0.48,WeatherDisplay:10.37,2013-12-08 21:43:00,
2013-12-08 15:48:00,48.2,47.4,30.24,NE,42,0.0,0.0,97,0.02,CLR,,0.48,WeatherDisplay:10.37,2013-12-08 21:48:00,
2013-12-08 15:53:00,48.0,47.2,30.24,NE,42,0.0,0.0,97,0.02,CLR,,0.48,WeatherDisplay:10.37,2013-12-08 21:53:00,
2013-12-08 15:58:00,48.0,47.2,30.24,NE,42,0.0,0.0,97,0.03,RA,,0.49,WeatherDisplay:10.37,2013-12-08 21:58:00,
2013-12-08 16:03:00,48.0,47.2,30.23,NE,42,0.0,0.0,97,0.03,RA,,0.49,WeatherDisplay:10.37,2013-12-08 22:03:00,
2013-12-08 16:08:00,48.0,47.2,30.24,NE,42,0.0,0.0,97,0.03,RA,,0.50,WeatherDisplay:10.37,2013-12-08 22:08:00,
2013-12-08 16:13:00,48.0,47.2,30.23,NE,42,0.0,0.0,97,0.03,RA,,0.50,WeatherDisplay:10.37,2013-12-08 22:13:00,
2013-12-08 16:18:00,48.0,47.2,30.23,NE,42,0.0,0.0,97,0.04,RA,,0.51,WeatherDisplay:10.37,2013-12-08 22:18:00,
2013-12-08 16:23:00,48.0,47.2,30.23,NE,42,0.0,0.0,97,0.03,RA,,0.52,WeatherDisplay:10.37,2013-12-08 22:23:00,
2013-12-08 16:28:00,48.0,47.2,30.22,NE,42,0.0,0.0,97,0.04,RA,,0.52,WeatherDisplay:10.37,2013-12-08 22:28:00,
2013-12-08 16:33:00,48.0,47.2,30.22,NE,42,0.0,0.0,97,0.04,RA,,0.52,WeatherDisplay:10.37,2013-12-08 22:33:00,
2013-12-08 16:39:00,48.0,47.2,30.22,NE,42,0.0,0.0,97,0.04,CLR,,0.53,WeatherDisplay:10.37,2013-12-08 22:39:00,
2013-12-08 16:44:00,48.0,47.2,30.23,NE,42,0.0,0.0,97,0.05,RA,,0.53,WeatherDisplay:10.37,2013-12-08 22:44:00,
2013-12-08 16:49:00,48.0,47.2,30.23,NE,42,0.0,0.0,97,0.05,RA,,0.53,WeatherDisplay:10.37,2013-12-08 22:49:00,
2013-12-08 16:54:00,48.2,47.4,30.23,NE,42,0.0,0.0,97,0.05,CLR,,0.53,WeatherDisplay:10.37,2013-12-08 22:54:00,
2013-12-08 16:59:00,48.2,47.4,30.23,NE,42,0.0,0.0,97,0.04,CLR,,0.53,WeatherDisplay:10.37,2013-12-08 22:59:00,
2013-12-08 17:04:00,48.2,47.4,30.23,NE,42,0.0,0.0,97,0.04,CLR,,0.53,WeatherDisplay:10.37,2013-12-08 23:04:00,
2013-12-08 17:09:00,48.2,47.4,30.22,NE,42,0.0,0.0,97,0.03,CLR,,0.53,WeatherDisplay:10.37,2013-12-08 23:09:00,
2013-12-08 17:14:00,48.3,47.5,30.22,NE,42,0.0,0.0,97,0.03,CLR,,0.53,WeatherDisplay:10.37,2013-12-08 23:14:00,
2013-12-08 17:19:00,48.3,47.5,30.23,NE,42,0.0,0.0,97,0.03,RA,,0.54,WeatherDisplay:10.37,2013-12-08 23:19:00,
2013-12-08 17:24:00,48.5,47.7,30.24,NE,42,0.0,0.0,97,0.03,RA,,0.54,WeatherDisplay:10.37,2013-12-08 23:24:00,
2013-12-08 17:29:00,48.5,47.7,30.25,NE,42,0.0,0.3,97,0.03,RA,,0.55,WeatherDisplay:10.37,2013-12-08 23:29:00,
2013-12-08 17:34:00,48.6,47.8,30.24,NE,42,1.2,1.4,97,0.06,RA,,0.58,WeatherDisplay:10.37,2013-12-08 23:34:00,
2013-12-08 17:39:00,48.6,47.8,30.23,NE,42,0.0,0.0,97,0.07,RA,,0.59,WeatherDisplay:10.37,2013-12-08 23:39:00,
2013-12-08 17:44:00,48.6,47.8,30.24,NE,42,0.0,0.0,97,0.06,RA,,0.59,WeatherDisplay:10.37,2013-12-08 23:44:00,
2013-12-08 17:49:00,48.6,47.8,30.24,NE,42,0.0,0.0,97,0.06,CLR,,0.59,WeatherDisplay:10.37,2013-12-08 23:49:00,
2013-12-08 17:54:00,48.6,47.8,30.24,NE,42,0.0,0.0,97,0.07,RA,,0.60,WeatherDisplay:10.37,2013-12-08 23:54:00,
2013-12-08 17:59:00,48.6,47.8,30.24,NE,42,0.0,0.0,97,0.07,RA,,0.60,WeatherDisplay:10.37,2013-12-08 23:59:00,
2013-12-08 18:04:00,48.6,47.8,30.25,NE,42,0.0,0.0,97,0.07,CLR,,0.60,WeatherDisplay:10.37,2013-12-09 00:04:00,
2013-12-08 18:09:00,48.6,47.8,30.25,NE,42,0.0,0.0,97,0.07,CLR,,0.60,WeatherDisplay:10.37,2013-12-09 00:09:00,
2013-12-08 18:14:00,48.6,47.8,30.23,NE,42,0.0,0.0,97,0.08,RA,,0.61,WeatherDisplay:10.37,2013-12-09 00:14:00,
2013-12-08 18:19:00,48.6,47.8,30.23,NE,42,0.0,0.0,97,0.07,RA,,0.61,WeatherDisplay:10.37,2013-12-09 00:19:00,
2013-12-08 18:24:00,48.6,47.8,30.23,NE,42,0.0,0.0,97,0.07,,,0.62,WeatherDisplay:10.37,2013-12-09 00:24:00,
2013-12-08 18:29:00,48.6,47.8,30.23,NE,42,0.0,0.0,97,0.07,RA,,0.62,WeatherDisplay:10.37,2013-12-09 00:29:00,
2013-12-08 18:34:00,48.6,47.8,30.24,NE,42,0.0,0.0,97,0.04,RA,,0.62,WeatherDisplay:10.37,2013-12-09 00:34:00,
2013-12-08 18:39:00,48.6,47.8,30.24,NE,42,0.0,0.0,97,0.03,CLR,,0.62,WeatherDisplay:10.37,2013-12-09 00:39:00,
2013-12-08 18:44:00,48.6,47.8,30.24,NE,42,0.0,0.0,97,0.03,CLR,,0.62,WeatherDisplay:10.37,2013-12-09 00:44:00,
2013-12-08 18:49:00,48.6,47.8,30.24,NE,42,0.0,0.0,97,0.03,CLR,,0.62,WeatherDisplay:10.37,2013-12-09 00:49:00,
2013-12-08 18:54:00,48.6,47.8,30.23,NE,42,0.0,0.0,97,0.02,CLR,,0.62,WeatherDisplay:10.37,2013-12-09 00:54:00,
2013-12-08 18:59:00,48.6,47.8,30.23,NE,42,0.0,0.0,97,0.02,CLR,,0.62,WeatherDisplay:10.37,2013-12-09 00:59:00,
2013-12-08 19:04:00,48.6,47.8,30.22,NE,42,0.0,0.0,97,0.02,CLR,,0.62,WeatherDisplay:10.37,2013-12-09 01:04:00,
2013-12-08 19:09:00,48.6,47.8,30.22,NE,42,0.0,0.0,97,0.02,CLR,,0.62,WeatherDisplay:10.37,2013-12-09 01:09:00,
2013-12-08 19:14:00,48.6,47.8,30.22,NE,42,0.0,0.0,97,0.01,CLR,,0.62,WeatherDisplay:10.37,2013-12-09 01:14:00,
2013-12-08 19:19:00,48.6,47.8,30.22,NE,42,0.0,0.0,97,0.01,CLR,,0.62,WeatherDisplay:10.37,2013-12-09 01:19:00,
2013-12-08 19:24:00,48.6,47.8,30.21,NE,42,0.0,0.0,97,0.01,CLR,,0.62,WeatherDisplay:10.37,2013-12-09 01:24:00,
2013-12-08 19:29:00,48.6,47.8,30.21,NE,42,0.0,0.0,97,0.00,CLR,,0.62,WeatherDisplay:10.37,2013-12-09 01:29:00,
2013-12-08 19:34:00,48.5,47.7,30.21,NE,42,0.0,0.0,97,0.00,CLR,,0.62,WeatherDisplay:10.37,2013-12-09 01:34:00,
2013-12-08 19:39:00,48.5,47.7,30.21,NE,42,0.0,0.0,97,0.00,CLR,,0.62,WeatherDisplay:10.37,2013-12-09 01:39:00,
2013-12-08 19:44:00,48.5,47.7,30.21,NE,42,0.0,0.0,97,0.00,CLR,,0.62,WeatherDisplay:10.37,2013-12-09 01:44:00,
2013-12-08 19:49:00,48.5,47.7,30.21,NE,42,0.0,0.0,97,0.00,CLR,,0.62,WeatherDisplay:10.37,2013-12-09 01:49:00,
2013-12-08 19:54:00,48.5,47.7,30.21,NE,42,0.0,0.0,97,0.00,CLR,,0.62,WeatherDisplay:10.37,2013-12-09 01:54:00,
2013-12-08 19:59:00,48.5,47.7,30.21,NE,42,0.0,0.0,97,0.00,CLR,,0.62,WeatherDisplay:10.37,2013-12-09 01:59:00,
2013-12-08 20:04:00,48.6,47.8,30.21,NE,42,0.0,0.0,97,0.00,CLR,,0.62,WeatherDisplay:10.37,2013-12-09 02:04:00,
2013-12-08 20:09:00,48.5,47.7,30.20,NE,42,0.0,0.0,97,0.00,CLR,,0.62,WeatherDisplay:10.37,2013-12-09 02:09:00,
2013-12-08 20:14:00,48.5,47.7,30.20,NE,42,0.0,0.0,97,0.00,CLR,,0.62,WeatherDisplay:10.37,2013-12-09 02:14:00,
2013-12-08 20:19:00,48.5,47.7,30.20,NE,42,0.0,0.0,97,0.00,CLR,,0.62,WeatherDisplay:10.37,2013-12-09 02:19:00,
2013-12-08 20:24:00,48.6,47.8,30.19,NE,42,0.0,0.0,97,0.01,RA,,0.63,WeatherDisplay:10.37,2013-12-09 02:24:00,
2013-12-08 20:29:00,48.6,47.8,30.19,NE,42,0.0,0.0,97,0.02,RA,,0.64,WeatherDisplay:10.37,2013-12-09 02:29:00,
2013-12-08 20:34:00,48.6,47.8,30.20,NE,42,0.0,0.0,97,0.03,RA,,0.65,WeatherDisplay:10.37,2013-12-09 02:34:00,
2013-12-08 20:39:00,48.6,47.8,30.20,NE,42,0.0,0.0,97,0.04,RA,,0.66,WeatherDisplay:10.37,2013-12-09 02:39:00,
2013-12-08 20:44:00,48.6,47.8,30.20,NE,42,0.0,0.0,97,0.07,RA,,0.69,WeatherDisplay:10.37,2013-12-09 02:44:00,
2013-12-08 20:49:00,48.6,47.8,30.20,NE,42,0.0,0.0,97,0.09,RA,,0.71,WeatherDisplay:10.37,2013-12-09 02:49:00,
2013-12-08 20:54:00,48.6,47.8,30.19,NE,42,0.0,0.0,97,0.10,RA,,0.72,WeatherDisplay:10.37,2013-12-09 02:54:00,
2013-12-08 20:59:00,48.6,47.8,30.19,NE,42,0.0,0.0,97,0.11,RA,,0.73,WeatherDisplay:10.37,2013-12-09 02:59:00,
2013-12-08 21:04:00,48.6,47.8,30.20,NE,42,0.0,0.0,97,0.11,RA,,0.73,WeatherDisplay:10.37,2013-12-09 03:04:00,
2013-12-08 21:09:00,48.6,47.8,30.20,NE,42,0.0,0.0,97,0.12,RA,,0.75,WeatherDisplay:10.37,2013-12-09 03:09:00,
2013-12-08 21:14:00,48.6,47.8,30.20,NE,42,0.0,0.0,97,0.14,RA,,0.76,WeatherDisplay:10.37,2013-12-09 03:14:00,
2013-12-08 21:19:00,48.6,47.8,30.20,NE,42,0.0,0.0,97,0.16,RA,,0.78,WeatherDisplay:10.37,2013-12-09 03:19:00,
2013-12-08 21:24:00,48.6,47.8,30.20,NE,42,0.0,0.0,97,0.17,RA,,0.80,WeatherDisplay:10.37,2013-12-09 03:24:00,
2013-12-08 21:29:00,48.6,47.8,30.19,NE,42,2.3,2.3,97,0.17,RA,,0.81,WeatherDisplay:10.37,2013-12-09 03:29:00,
2013-12-08 21:34:00,48.6,47.8,30.19,NE,42,0.0,0.0,97,0.16,RA,,0.81,WeatherDisplay:10.37,2013-12-09 03:34:00,
2013-12-08 21:39:00,48.6,47.8,30.19,NE,42,0.0,0.0,97,0.15,,,0.81,WeatherDisplay:10.37,2013-12-09 03:39:00,
2013-12-08 21:44:00,48.6,47.8,30.20,NE,42,0.0,0.0,97,0.13,RA,,0.82,WeatherDisplay:10.37,2013-12-09 03:44:00,
2013-12-08 21:45:00,51.3,46.9,30.26,NE,45,1.0,3.0,85,0.00,CLR,,0.17,WeatherDisplay:10.37,2013-12-09 03:45:00,
2013-12-08 21:49:00,48.6,47.8,30.20,NE,42,0.0,0.0,97,0.11,RA,,0.82,WeatherDisplay:10.37,2013-12-09 03:49:00,
2013-12-08 21:54:00,48.8,48.0,30.20,NE,42,0.0,0.0,97,0.10,CLR,,0.82,WeatherDisplay:10.37,2013-12-09 03:54:00,
2013-12-08 21:55:00,51.3,46.3,30.26,NE,45,0.0,0.0,83,0.00,CLR,,0.17,WeatherDisplay:10.37,2013-12-09 03:55:00,
2013-12-08 21:59:00,48.8,48.0,30.20,NE,42,1.2,1.2,97,0.09,CLR,,0.82,WeatherDisplay:10.37,2013-12-09 03:59:00,
2013-12-08 22:00:00,51.3,46.3,30.26,NE,45,0.0,3.0,83,0.00,CLR,,0.17,WeatherDisplay:10.37,2013-12-09 04:00:00,
2013-12-08 22:04:00,48.8,48.0,30.19,NE,42,0.0,0.0,97,0.09,CLR,,0.82,WeatherDisplay:10.37,2013-12-09 04:04:00,
2013-12-08 22:05:00,51.3,46.3,30.25,NE,45,0.0,1.0,83,0.00,CLR,,0.17,WeatherDisplay:10.37,2013-12-09 04:05:00,
2013-12-08 22:09:00,48.8,48.0,30.20,NE,42,1.2,1.2,97,0.08,CLR,,0.82,WeatherDisplay:10.37,2013-12-09 04:09:00,
2013-12-08 22:10:00,51.3,46.6,30.25,NE,45,1.0,2.0,84,0.00,CLR,,0.17,WeatherDisplay:10.37,2013-12-09 04:10:00,
2013-12-08 22:14:00,48.8,48.0,30.20,NE,42,0.0,0.0,97,0.06,CLR,,0.82,WeatherDisplay:10.37,2013-12-09 04:14:00,
2013-12-08 22:15:00,51.4,47.0,30.25,NE,45,0.0,1.0,85,0.00,CLR,,0.17,WeatherDisplay:10.37,2013-12-09 04:15:00,
2013-12-08 22:19:00,48.8,48.0,30.20,NE,42,0.0,0.0,97,0.04,CLR,,0.82,WeatherDisplay:10.37,2013-12-09 04:19:00,
2013-12-08 22:20:00,51.6,46.9,30.24,NE,45,0.0,3.0,84,0.00,CLR,,0.17,WeatherDisplay:10.37,2013-12-09 04:20:00,
2013-12-08 22:24:00,48.8,48.0,30.20,NE,42,0.0,0.0,97,0.03,RA,,0.83,WeatherDisplay:10.37,2013-12-09 04:24:00,
2013-12-08 22:25:00,51.9,46.9,30.24,NE,45,0.0,2.0,83,0.00,CLR,,0.17,WeatherDisplay:10.37,2013-12-09 04:25:00,
2013-12-08 22:29:00,48.8,48.0,30.19,NE,42,0.0,0.0,97,0.02,RA,,0.83,WeatherDisplay:10.37,2013-12-09 04:29:00,
2013-12-08 22:30:00,51.7,46.7,30.24,NE,40,0.0,1.0,83,0.00,CLR,,0.17,WeatherDisplay:10.37,2013-12-09 04:30:00,
2013-12-08 22:34:00,48.8,48.0,30.19,NE,42,0.0,0.0,97,0.02,CLR,,0.83,WeatherDisplay:10.37,2013-12-09 04:34:00,
2013-12-08 22:35:00,51.7,46.7,30.24,NE,45,0.0,1.0,83,0.00,CLR,,0.17,WeatherDisplay:10.37,2013-12-09 04:35:00,
2013-12-08 22:39:00,48.8,48.0,30.19,NE,42,0.0,0.0,97,0.03,RA,,0.84,WeatherDisplay:10.37,2013-12-09 04:39:00,
2013-12-08 22:40:00,51.9,47.2,30.24,NE,43,0.0,1.0,84,0.00,CLR,,0.17,WeatherDisplay:10.37,2013-12-09 04:40:00,
2013-12-08 22:44:00,48.8,48.0,30.19,NE,42,0.0,0.0,97,0.02,RA,,0.84,WeatherDisplay:10.37,2013-12-09 04:44:00,
2013-12-08 22:45:00,51.9,46.9,30.24,NE,45,0.0,1.0,83,0.00,CLR,,0.17,WeatherDisplay:10.37,2013-12-09 04:45:00,
2013-12-08 22:49:00,48.8,48.0,30.19,NE,42,0.0,0.0,97,0.02,CLR,,0.84,WeatherDisplay:10.37,2013-12-09 04:49:00,
2013-12-08 22:50:00,52.0,47.6,30.23,NE,45,0.0,2.0,85,0.00,CLR,,0.17,WeatherDisplay:10.37,2013-12-09 04:50:00,
2013-12-08 22:54:00,48.8,48.0,30.19,NE,42,0.0,0.0,97,0.02,CLR,,0.84,WeatherDisplay:10.37,2013-12-09 04:54:00,
2013-12-08 22:59:00,48.8,48.0,30.19,NE,42,0.0,0.0,97,0.03,RA,,0.85,WeatherDisplay:10.37,2013-12-09 04:59:00,
2013-12-08 23:01:00,48.8,48.0,30.19,NE,42,0.0,0.0,97,0.03,RA,,0.85,WeatherDisplay:10.37,2013-12-09 05:01:00,
2013-12-08 23:03:00,48.8,48.0,30.19,NE,42,0.0,0.0,97,0.03,RA,,0.85,WeatherDisplay:10.37,2013-12-09 05:03:00,
2013-12-08 23:04:00,48.8,48.0,30.20,NE,42,0.0,0.0,97,0.03,RA,,0.86,WeatherDisplay:10.37,2013-12-09 05:04:00,
2013-12-08 23:09:00,48.8,48.0,30.19,NE,42,0.0,0.0,97,0.07,RA,,0.90,WeatherDisplay:10.37,2013-12-09 05:09:00,
2013-12-08 23:14:00,48.8,48.0,30.20,NE,42,0.0,0.0,97,0.11,RA,,0.93,WeatherDisplay:10.37,2013-12-09 05:14:00,
2013-12-08 23:19:00,48.8,48.0,30.19,NE,42,0.0,0.0,97,0.11,RA,,0.93,WeatherDisplay:10.37,2013-12-09 05:19:00,
2013-12-08 23:24:00,48.8,48.0,30.20,NE,42,0.0,0.0,97,0.11,RA,,0.94,WeatherDisplay:10.37,2013-12-09 05:24:00,
2013-12-08 23:29:00,48.8,48.0,30.18,NE,42,1.0,1.0,97,0.12,RA,,0.95,WeatherDisplay:10.37,2013-12-09 05:29:00,
2013-12-08 23:34:00,48.8,48.0,30.19,NE,42,0.0,0.0,97,0.12,RA,,0.95,WeatherDisplay:10.37,2013-12-09 05:34:00,
2013-12-08 23:39:00,48.8,48.0,30.19,NE,42,0.0,0.0,97,0.12,RA,,0.96,WeatherDisplay:10.37,2013-12-09 05:39:00,
2013-12-08 23:44:00,48.8,48.0,30.19,NE,42,0.0,0.0,97,0.13,RA,,0.97,WeatherDisplay:10.37,2013-12-09 05:44:00,
2013-12-08 23:49:00,48.8,48.0,30.19,NE,42,0.0,0.0,97,0.13,RA,,0.97,WeatherDisplay:10.37,2013-12-09 05:49:00,
2013-12-08 23:54:00,48.8,48.0,30.19,NE,42,0.0,0.0,97,0.13,CLR,,0.97,WeatherDisplay:10.37,2013-12-09 05:54:00,
2013-12-08 23:59:00,48.8,48.0,30.19,NE,42,0.0,0.0,97,0.12,CLR,,0.97,WeatherDisplay:10.37,2013-12-09 05:59:00,